sensor_id;sensor_type;location;lat;lon;timestamp;temperature;humidity
75819;DHT22;64453;51.944;9.796;2023-02-28T00:01:11;6.60;44.70
75819;DHT22;64453;51.944;9.796;2023-02-28T00:03:39;6.60;45.00
75819;DHT22;64453;51.944;9.796;2023-02-28T00:06:08;6.60;45.00
75819;DHT22;64453;51.944;9.796;2023-02-28T00:08:36;6.30;45.30
75819;DHT22;64453;51.944;9.796;2023-02-28T00:11:04;6.30;45.10
75819;DHT22;64453;51.944;9.796;2023-02-28T00:13:35;6.30;45.70
75819;DHT22;64453;51.944;9.796;2023-02-28T00:16:06;6.00;46.10
75819;DHT22;64453;51.944;9.796;2023-02-28T00:18:35;6.00;46.30
75819;DHT22;64453;51.944;9.796;2023-02-28T00:21:02;6.20;45.50
75819;DHT22;64453;51.944;9.796;2023-02-28T00:23:30;6.10;45.30
75819;DHT22;64453;51.944;9.796;2023-02-28T00:25:57;5.90;45.90
75819;DHT22;64453;51.944;9.796;2023-02-28T00:28:24;6.00;46.00
75819;DHT22;64453;51.944;9.796;2023-02-28T00:30:51;6.30;45.70
75819;DHT22;64453;51.944;9.796;2023-02-28T00:33:18;6.00;45.80
75819;DHT22;64453;51.944;9.796;2023-02-28T00:35:45;5.70;46.50
75819;DHT22;64453;51.944;9.796;2023-02-28T00:38:12;4.90;47.60
75819;DHT22;64453;51.944;9.796;2023-02-28T00:40:40;5.20;48.10
75819;DHT22;64453;51.944;9.796;2023-02-28T00:43:07;5.70;46.90
75819;DHT22;64453;51.944;9.796;2023-02-28T00:45:34;5.60;46.40
75819;DHT22;64453;51.944;9.796;2023-02-28T00:48:01;5.60;46.70
75819;DHT22;64453;51.944;9.796;2023-02-28T00:50:28;5.80;45.80
75819;DHT22;64453;51.944;9.796;2023-02-28T00:52:55;6.20;45.30
75819;DHT22;64453;51.944;9.796;2023-02-28T00:55:21;6.40;45.10
75819;DHT22;64453;51.944;9.796;2023-02-28T00:57:50;6.10;46.30
75819;DHT22;64453;51.944;9.796;2023-02-28T01:00:17;5.80;45.80
75819;DHT22;64453;51.944;9.796;2023-02-28T01:02:44;5.90;45.80
75819;DHT22;64453;51.944;9.796;2023-02-28T01:05:11;6.20;45.50
75819;DHT22;64453;51.944;9.796;2023-02-28T01:07:38;6.30;45.40
75819;DHT22;64453;51.944;9.796;2023-02-28T01:10:05;6.40;45.10
75819;DHT22;64453;51.944;9.796;2023-02-28T01:12:33;6.30;44.80
75819;DHT22;64453;51.944;9.796;2023-02-28T01:15:01;6.10;45.50
75819;DHT22;64453;51.944;9.796;2023-02-28T01:17:28;6.40;45.50
75819;DHT22;64453;51.944;9.796;2023-02-28T01:19:55;6.40;46.00
75819;DHT22;64453;51.944;9.796;2023-02-28T01:22:22;6.40;45.50
75819;DHT22;64453;51.944;9.796;2023-02-28T01:24:49;5.90;45.40
75819;DHT22;64453;51.944;9.796;2023-02-28T01:27:16;5.60;46.40
75819;DHT22;64453;51.944;9.796;2023-02-28T01:29:43;5.80;46.30
75819;DHT22;64453;51.944;9.796;2023-02-28T01:32:11;5.60;46.20
75819;DHT22;64453;51.944;9.796;2023-02-28T01:34:38;5.30;46.70
75819;DHT22;64453;51.944;9.796;2023-02-28T01:37:05;5.30;46.50
75819;DHT22;64453;51.944;9.796;2023-02-28T01:39:32;5.40;46.50
75819;DHT22;64453;51.944;9.796;2023-02-28T01:41:59;5.50;46.20
75819;DHT22;64453;51.944;9.796;2023-02-28T01:45:08;5.70;45.60
75819;DHT22;64453;51.944;9.796;2023-02-28T01:47:48;5.90;45.50
75819;DHT22;64453;51.944;9.796;2023-02-28T01:50:19;6.10;45.20
75819;DHT22;64453;51.944;9.796;2023-02-28T01:52:49;6.10;45.10
75819;DHT22;64453;51.944;9.796;2023-02-28T01:55:19;5.60;45.60
75819;DHT22;64453;51.944;9.796;2023-02-28T01:57:50;5.20;45.90
75819;DHT22;64453;51.944;9.796;2023-02-28T02:00:22;5.60;46.10
75819;DHT22;64453;51.944;9.796;2023-02-28T02:02:57;5.70;45.70
75819;DHT22;64453;51.944;9.796;2023-02-28T02:05:27;5.70;45.40
75819;DHT22;64453;51.944;9.796;2023-02-28T02:07:58;5.90;45.10
75819;DHT22;64453;51.944;9.796;2023-02-28T02:10:32;6.10;44.90
75819;DHT22;64453;51.944;9.796;2023-02-28T02:13:21;6.10;45.00
75819;DHT22;64453;51.944;9.796;2023-02-28T02:16:01;6.00;45.00
75819;DHT22;64453;51.944;9.796;2023-02-28T02:18:43;5.50;45.50
75819;DHT22;64453;51.944;9.796;2023-02-28T02:21:38;5.30;46.20
75819;DHT22;64453;51.944;9.796;2023-02-28T02:24:33;5.20;46.60
75819;DHT22;64453;51.944;9.796;2023-02-28T02:27:27;5.50;46.30
75819;DHT22;64453;51.944;9.796;2023-02-28T02:33:32;5.90;45.10
75819;DHT22;64453;51.944;9.796;2023-02-28T02:36:26;5.70;45.70
75819;DHT22;64453;51.944;9.796;2023-02-28T02:38:59;5.70;45.40
75819;DHT22;64453;51.944;9.796;2023-02-28T02:41:37;5.40;46.30
75819;DHT22;64453;51.944;9.796;2023-02-28T02:44:11;5.50;46.70
75819;DHT22;64453;51.944;9.796;2023-02-28T02:46:43;5.50;46.20
75819;DHT22;64453;51.944;9.796;2023-02-28T02:49:16;5.60;45.80
75819;DHT22;64453;51.944;9.796;2023-02-28T02:51:48;5.80;45.50
75819;DHT22;64453;51.944;9.796;2023-02-28T02:54:19;5.90;45.40
75819;DHT22;64453;51.944;9.796;2023-02-28T02:56:48;6.00;45.10
75819;DHT22;64453;51.944;9.796;2023-02-28T02:59:19;5.80;45.50
75819;DHT22;64453;51.944;9.796;2023-02-28T03:01:49;5.80;45.70
75819;DHT22;64453;51.944;9.796;2023-02-28T03:04:19;5.70;45.80
75819;DHT22;64453;51.944;9.796;2023-02-28T03:06:50;5.60;45.80
75819;DHT22;64453;51.944;9.796;2023-02-28T03:09:20;5.60;45.60
75819;DHT22;64453;51.944;9.796;2023-02-28T03:11:48;5.40;45.60
75819;DHT22;64453;51.944;9.796;2023-02-28T03:14:55;5.40;45.80
75819;DHT22;64453;51.944;9.796;2023-02-28T03:17:36;5.40;46.30
75819;DHT22;64453;51.944;9.796;2023-02-28T03:20:17;5.40;46.70
75819;DHT22;64453;51.944;9.796;2023-02-28T03:22:57;5.70;46.50
75819;DHT22;64453;51.944;9.796;2023-02-28T03:25:33;5.60;46.20
75819;DHT22;64453;51.944;9.796;2023-02-28T03:28:09;5.60;46.20
75819;DHT22;64453;51.944;9.796;2023-02-28T03:30:46;5.40;46.20
75819;DHT22;64453;51.944;9.796;2023-02-28T03:33:20;4.90;46.90
75819;DHT22;64453;51.944;9.796;2023-02-28T03:35:52;5.10;47.60
75819;DHT22;64453;51.944;9.796;2023-02-28T03:38:26;5.10;47.30
75819;DHT22;64453;51.944;9.796;2023-02-28T03:41:02;5.20;47.60
75819;DHT22;64453;51.944;9.796;2023-02-28T03:43:35;4.90;47.40
75819;DHT22;64453;51.944;9.796;2023-02-28T03:46:08;5.10;47.50
75819;DHT22;64453;51.944;9.796;2023-02-28T03:48:40;5.30;47.10
75819;DHT22;64453;51.944;9.796;2023-02-28T03:51:10;5.60;46.40
75819;DHT22;64453;51.944;9.796;2023-02-28T03:53:45;5.60;45.80
75819;DHT22;64453;51.944;9.796;2023-02-28T03:56:17;5.60;46.10
75819;DHT22;64453;51.944;9.796;2023-02-28T03:58:50;5.70;46.10
75819;DHT22;64453;51.944;9.796;2023-02-28T04:01:23;5.90;45.70
75819;DHT22;64453;51.944;9.796;2023-02-28T04:03:52;5.90;45.50
75819;DHT22;64453;51.944;9.796;2023-02-28T04:06:20;5.90;45.80
75819;DHT22;64453;51.944;9.796;2023-02-28T04:08:50;6.00;46.80
75819;DHT22;64453;51.944;9.796;2023-02-28T04:11:23;6.00;45.80
75819;DHT22;64453;51.944;9.796;2023-02-28T04:13:52;6.00;45.90
75819;DHT22;64453;51.944;9.796;2023-02-28T04:16:19;5.90;45.80
75819;DHT22;64453;51.944;9.796;2023-02-28T04:18:45;5.90;45.60
75819;DHT22;64453;51.944;9.796;2023-02-28T04:21:12;5.80;46.30
75819;DHT22;64453;51.944;9.796;2023-02-28T04:23:39;6.00;46.10
75819;DHT22;64453;51.944;9.796;2023-02-28T04:26:07;6.10;45.90
75819;DHT22;64453;51.944;9.796;2023-02-28T04:28:36;6.10;45.70
75819;DHT22;64453;51.944;9.796;2023-02-28T04:31:05;6.10;45.70
75819;DHT22;64453;51.944;9.796;2023-02-28T04:33:32;6.10;45.50
75819;DHT22;64453;51.944;9.796;2023-02-28T04:36:00;5.70;45.80
75819;DHT22;64453;51.944;9.796;2023-02-28T04:38:29;5.90;46.20
75819;DHT22;64453;51.944;9.796;2023-02-28T04:40:57;5.80;46.00
75819;DHT22;64453;51.944;9.796;2023-02-28T04:43:27;5.90;45.80
75819;DHT22;64453;51.944;9.796;2023-02-28T04:45:55;5.30;46.00
75819;DHT22;64453;51.944;9.796;2023-02-28T04:48:22;5.40;47.40
75819;DHT22;64453;51.944;9.796;2023-02-28T04:50:50;5.40;47.20
75819;DHT22;64453;51.944;9.796;2023-02-28T04:53:17;5.40;47.60
75819;DHT22;64453;51.944;9.796;2023-02-28T04:55:44;5.30;47.20
75819;DHT22;64453;51.944;9.796;2023-02-28T04:58:11;5.00;47.50
75819;DHT22;64453;51.944;9.796;2023-02-28T05:00:39;4.90;47.50
75819;DHT22;64453;51.944;9.796;2023-02-28T05:03:07;5.40;47.40
75819;DHT22;64453;51.944;9.796;2023-02-28T05:05:35;5.10;46.90
75819;DHT22;64453;51.944;9.796;2023-02-28T05:08:02;5.00;47.40
75819;DHT22;64453;51.944;9.796;2023-02-28T05:10:30;4.90;48.00
75819;DHT22;64453;51.944;9.796;2023-02-28T05:12:57;5.40;47.10
75819;DHT22;64453;51.944;9.796;2023-02-28T05:15:24;5.60;46.40
75819;DHT22;64453;51.944;9.796;2023-02-28T05:17:53;5.50;46.40
75819;DHT22;64453;51.944;9.796;2023-02-28T05:20:20;5.60;46.00
75819;DHT22;64453;51.944;9.796;2023-02-28T05:22:47;5.70;45.70
75819;DHT22;64453;51.944;9.796;2023-02-28T05:25:17;5.60;45.80
75819;DHT22;64453;51.944;9.796;2023-02-28T05:27:45;5.60;46.10
75819;DHT22;64453;51.944;9.796;2023-02-28T05:30:12;5.20;46.20
75819;DHT22;64453;51.944;9.796;2023-02-28T05:32:40;5.10;45.80
75819;DHT22;64453;51.944;9.796;2023-02-28T05:35:11;5.50;45.80
75819;DHT22;64453;51.944;9.796;2023-02-28T05:37:38;5.50;46.40
75819;DHT22;64453;51.944;9.796;2023-02-28T05:40:07;5.40;45.60
75819;DHT22;64453;51.944;9.796;2023-02-28T05:42:35;5.00;44.60
75819;DHT22;64453;51.944;9.796;2023-02-28T05:45:03;5.40;45.40
75819;DHT22;64453;51.944;9.796;2023-02-28T05:47:30;5.40;45.40
75819;DHT22;64453;51.944;9.796;2023-02-28T05:49:57;5.20;45.70
75819;DHT22;64453;51.944;9.796;2023-02-28T05:52:26;5.30;45.40
75819;DHT22;64453;51.944;9.796;2023-02-28T05:54:55;5.40;45.20
75819;DHT22;64453;51.944;9.796;2023-02-28T05:57:22;5.40;45.00
75819;DHT22;64453;51.944;9.796;2023-02-28T05:59:49;5.30;45.00
75819;DHT22;64453;51.944;9.796;2023-02-28T06:02:17;5.30;45.10
75819;DHT22;64453;51.944;9.796;2023-02-28T06:04:45;5.30;44.80
75819;DHT22;64453;51.944;9.796;2023-02-28T06:07:11;5.20;44.70
75819;DHT22;64453;51.944;9.796;2023-02-28T06:09:40;4.30;45.30
75819;DHT22;64453;51.944;9.796;2023-02-28T06:12:07;4.20;45.70
75819;DHT22;64453;51.944;9.796;2023-02-28T06:14:35;4.10;46.60
75819;DHT22;64453;51.944;9.796;2023-02-28T06:17:03;4.10;47.20
75819;DHT22;64453;51.944;9.796;2023-02-28T06:19:30;3.70;47.90
75819;DHT22;64453;51.944;9.796;2023-02-28T06:21:57;3.50;48.40
75819;DHT22;64453;51.944;9.796;2023-02-28T06:24:25;3.30;49.10
75819;DHT22;64453;51.944;9.796;2023-02-28T06:26:55;3.30;49.00
75819;DHT22;64453;51.944;9.796;2023-02-28T06:29:24;3.50;48.30
75819;DHT22;64453;51.944;9.796;2023-02-28T06:31:51;3.30;48.00
75819;DHT22;64453;51.944;9.796;2023-02-28T06:34:17;3.80;47.30
75819;DHT22;64453;51.944;9.796;2023-02-28T06:36:44;4.00;46.70
75819;DHT22;64453;51.944;9.796;2023-02-28T06:39:11;4.50;45.70
75819;DHT22;64453;51.944;9.796;2023-02-28T06:41:38;4.60;45.30
75819;DHT22;64453;51.944;9.796;2023-02-28T06:44:11;4.80;45.10
75819;DHT22;64453;51.944;9.796;2023-02-28T06:46:39;4.90;45.00
75819;DHT22;64453;51.944;9.796;2023-02-28T06:49:07;4.90;45.30
75819;DHT22;64453;51.944;9.796;2023-02-28T06:51:36;4.30;45.40
75819;DHT22;64453;51.944;9.796;2023-02-28T06:54:04;4.10;46.60
75819;DHT22;64453;51.944;9.796;2023-02-28T06:56:34;4.60;46.60
75819;DHT22;64453;51.944;9.796;2023-02-28T06:59:02;4.80;45.80
75819;DHT22;64453;51.944;9.796;2023-02-28T07:01:30;4.40;45.80
75819;DHT22;64453;51.944;9.796;2023-02-28T07:03:58;4.40;46.90
75819;DHT22;64453;51.944;9.796;2023-02-28T07:06:26;4.40;46.90
75819;DHT22;64453;51.944;9.796;2023-02-28T07:08:53;4.70;46.40
75819;DHT22;64453;51.944;9.796;2023-02-28T07:11:22;4.90;45.80
75819;DHT22;64453;51.944;9.796;2023-02-28T07:13:51;4.80;44.90
75819;DHT22;64453;51.944;9.796;2023-02-28T07:16:18;4.80;44.90
75819;DHT22;64453;51.944;9.796;2023-02-28T07:18:46;5.00;44.60
75819;DHT22;64453;51.944;9.796;2023-02-28T07:21:14;5.20;44.80
75819;DHT22;64453;51.944;9.796;2023-02-28T07:23:41;5.10;44.70
75819;DHT22;64453;51.944;9.796;2023-02-28T07:26:11;5.10;44.20
75819;DHT22;64453;51.944;9.796;2023-02-28T07:28:40;4.80;44.50
75819;DHT22;64453;51.944;9.796;2023-02-28T07:31:08;4.10;44.70
75819;DHT22;64453;51.944;9.796;2023-02-28T07:33:34;4.80;45.50
75819;DHT22;64453;51.944;9.796;2023-02-28T07:36:05;5.30;44.80
75819;DHT22;64453;51.944;9.796;2023-02-28T07:38:33;5.60;44.50
75819;DHT22;64453;51.944;9.796;2023-02-28T07:41:00;5.60;44.50
75819;DHT22;64453;51.944;9.796;2023-02-28T07:43:29;5.70;45.20
75819;DHT22;64453;51.944;9.796;2023-02-28T07:46:01;5.40;45.20
75819;DHT22;64453;51.944;9.796;2023-02-28T07:48:28;5.70;45.70
75819;DHT22;64453;51.944;9.796;2023-02-28T07:50:55;5.70;45.40
75819;DHT22;64453;51.944;9.796;2023-02-28T07:53:24;5.80;45.50
75819;DHT22;64453;51.944;9.796;2023-02-28T07:55:51;5.70;44.70
75819;DHT22;64453;51.944;9.796;2023-02-28T07:58:21;5.90;45.10
75819;DHT22;64453;51.944;9.796;2023-02-28T08:00:48;5.70;44.40
75819;DHT22;64453;51.944;9.796;2023-02-28T08:03:14;5.90;44.40
75819;DHT22;64453;51.944;9.796;2023-02-28T08:05:42;5.90;44.20
75819;DHT22;64453;51.944;9.796;2023-02-28T08:08:08;6.00;44.40
75819;DHT22;64453;51.944;9.796;2023-02-28T08:10:37;6.10;44.40
75819;DHT22;64453;51.944;9.796;2023-02-28T08:13:04;5.80;44.20
75819;DHT22;64453;51.944;9.796;2023-02-28T08:15:30;5.40;44.60
75819;DHT22;64453;51.944;9.796;2023-02-28T08:17:57;5.50;45.70
75819;DHT22;64453;51.944;9.796;2023-02-28T08:20:24;5.80;45.60
75819;DHT22;64453;51.944;9.796;2023-02-28T08:22:52;5.70;45.00
75819;DHT22;64453;51.944;9.796;2023-02-28T08:25:19;6.00;45.20
75819;DHT22;64453;51.944;9.796;2023-02-28T08:27:47;6.10;44.70
75819;DHT22;64453;51.944;9.796;2023-02-28T08:30:17;6.10;44.10
75819;DHT22;64453;51.944;9.796;2023-02-28T08:32:44;6.30;43.90
75819;DHT22;64453;51.944;9.796;2023-02-28T08:35:10;6.40;44.30
75819;DHT22;64453;51.944;9.796;2023-02-28T08:37:38;6.40;43.60
75819;DHT22;64453;51.944;9.796;2023-02-28T08:40:06;6.40;44.10
75819;DHT22;64453;51.944;9.796;2023-02-28T08:42:33;6.40;44.30
75819;DHT22;64453;51.944;9.796;2023-02-28T08:45:02;6.40;44.80
75819;DHT22;64453;51.944;9.796;2023-02-28T08:47:29;6.50;44.60
75819;DHT22;64453;51.944;9.796;2023-02-28T08:49:56;6.40;44.30
75819;DHT22;64453;51.944;9.796;2023-02-28T08:52:22;5.60;45.10
75819;DHT22;64453;51.944;9.796;2023-02-28T08:54:49;4.10;47.00
75819;DHT22;64453;51.944;9.796;2023-02-28T08:57:16;4.70;48.30
75819;DHT22;64453;51.944;9.796;2023-02-28T08:59:43;5.20;48.10
75819;DHT22;64453;51.944;9.796;2023-02-28T09:02:12;5.60;46.90
75819;DHT22;64453;51.944;9.796;2023-02-28T09:04:40;5.70;46.20
75819;DHT22;64453;51.944;9.796;2023-02-28T09:07:07;6.10;46.00
75819;DHT22;64453;51.944;9.796;2023-02-28T09:09:34;6.10;46.10
75819;DHT22;64453;51.944;9.796;2023-02-28T09:12:02;5.90;45.90
75819;DHT22;64453;51.944;9.796;2023-02-28T09:14:30;6.30;45.60
75819;DHT22;64453;51.944;9.796;2023-02-28T09:16:58;5.60;45.10
75819;DHT22;64453;51.944;9.796;2023-02-28T09:19:26;6.40;45.40
75819;DHT22;64453;51.944;9.796;2023-02-28T09:21:53;6.50;45.20
75819;DHT22;64453;51.944;9.796;2023-02-28T09:24:20;6.40;45.50
75819;DHT22;64453;51.944;9.796;2023-02-28T09:26:46;6.70;45.00
75819;DHT22;64453;51.944;9.796;2023-02-28T09:29:13;6.80;45.00
75819;DHT22;64453;51.944;9.796;2023-02-28T09:31:42;6.70;45.10
75819;DHT22;64453;51.944;9.796;2023-02-28T09:34:09;7.00;45.80
75819;DHT22;64453;51.944;9.796;2023-02-28T09:36:37;7.00;45.60
75819;DHT22;64453;51.944;9.796;2023-02-28T09:39:03;7.00;45.30
75819;DHT22;64453;51.944;9.796;2023-02-28T09:41:37;7.10;44.90
75819;DHT22;64453;51.944;9.796;2023-02-28T09:44:15;7.10;44.80
75819;DHT22;64453;51.944;9.796;2023-02-28T09:46:49;7.10;44.90
75819;DHT22;64453;51.944;9.796;2023-02-28T09:49:21;6.10;43.50
75819;DHT22;64453;51.944;9.796;2023-02-28T09:51:56;5.70;45.00
75819;DHT22;64453;51.944;9.796;2023-02-28T09:54:30;6.10;45.80
75819;DHT22;64453;51.944;9.796;2023-02-28T09:57:02;6.50;45.90
75819;DHT22;64453;51.944;9.796;2023-02-28T09:59:44;6.90;45.70
75819;DHT22;64453;51.944;9.796;2023-02-28T10:02:46;6.90;44.90
75819;DHT22;64453;51.944;9.796;2023-02-28T10:05:22;6.80;44.60
75819;DHT22;64453;51.944;9.796;2023-02-28T10:08:03;6.90;45.10
75819;DHT22;64453;51.944;9.796;2023-02-28T10:10:38;7.00;45.00
75819;DHT22;64453;51.944;9.796;2023-02-28T10:13:13;6.60;44.90
75819;DHT22;64453;51.944;9.796;2023-02-28T10:15:45;6.20;45.00
75819;DHT22;64453;51.944;9.796;2023-02-28T10:18:15;6.50;45.70
75819;DHT22;64453;51.944;9.796;2023-02-28T10:20:47;6.50;45.60
75819;DHT22;64453;51.944;9.796;2023-02-28T10:23:21;6.60;44.80
75819;DHT22;64453;51.944;9.796;2023-02-28T10:25:54;6.70;45.40
75819;DHT22;64453;51.944;9.796;2023-02-28T10:28:24;6.70;45.50
75819;DHT22;64453;51.944;9.796;2023-02-28T10:30:53;6.80;44.90
75819;DHT22;64453;51.944;9.796;2023-02-28T10:33:23;6.60;45.30
75819;DHT22;64453;51.944;9.796;2023-02-28T10:35:52;7.00;45.70
75819;DHT22;64453;51.944;9.796;2023-02-28T10:38:22;6.40;42.90
75819;DHT22;64453;51.944;9.796;2023-02-28T10:40:50;6.50;43.10
75819;DHT22;64453;51.944;9.796;2023-02-28T10:43:20;7.00;43.40
75819;DHT22;64453;51.944;9.796;2023-02-28T10:45:58;7.10;42.60
75819;DHT22;64453;51.944;9.796;2023-02-28T10:48:30;6.80;41.50
75819;DHT22;64453;51.944;9.796;2023-02-28T10:51:00;7.10;42.00
75819;DHT22;64453;51.944;9.796;2023-02-28T10:53:34;7.30;40.10
75819;DHT22;64453;51.944;9.796;2023-02-28T10:56:08;7.30;38.80
75819;DHT22;64453;51.944;9.796;2023-02-28T10:58:48;7.60;38.20
75819;DHT22;64453;51.944;9.796;2023-02-28T11:01:20;7.60;37.90
75819;DHT22;64453;51.944;9.796;2023-02-28T11:03:49;7.70;36.80
75819;DHT22;64453;51.944;9.796;2023-02-28T11:06:19;7.90;36.60
75819;DHT22;64453;51.944;9.796;2023-02-28T11:08:51;7.80;35.90
75819;DHT22;64453;51.944;9.796;2023-02-28T11:11:20;7.70;35.70
75819;DHT22;64453;51.944;9.796;2023-02-28T11:13:52;7.80;35.40
75819;DHT22;64453;51.944;9.796;2023-02-28T11:16:20;7.90;35.40
75819;DHT22;64453;51.944;9.796;2023-02-28T11:18:49;7.90;35.50
75819;DHT22;64453;51.944;9.796;2023-02-28T11:21:22;7.90;36.00
75819;DHT22;64453;51.944;9.796;2023-02-28T11:23:56;8.00;36.30
75819;DHT22;64453;51.944;9.796;2023-02-28T11:26:39;7.70;35.80
75819;DHT22;64453;51.944;9.796;2023-02-28T11:29:18;7.80;36.00
75819;DHT22;64453;51.944;9.796;2023-02-28T11:32:11;8.00;36.00
75819;DHT22;64453;51.944;9.796;2023-02-28T11:34:41;8.00;35.00
75819;DHT22;64453;51.944;9.796;2023-02-28T11:37:13;8.10;35.20
75819;DHT22;64453;51.944;9.796;2023-02-28T11:39:43;8.10;35.20
75819;DHT22;64453;51.944;9.796;2023-02-28T11:42:37;7.90;34.50
75819;DHT22;64453;51.944;9.796;2023-02-28T11:45:18;8.10;34.70
75819;DHT22;64453;51.944;9.796;2023-02-28T11:47:58;7.80;33.70
75819;DHT22;64453;51.944;9.796;2023-02-28T11:50:47;7.90;35.80
75819;DHT22;64453;51.944;9.796;2023-02-28T11:53:39;8.10;35.00
75819;DHT22;64453;51.944;9.796;2023-02-28T11:56:18;8.40;34.70
75819;DHT22;64453;51.944;9.796;2023-02-28T11:58:58;7.80;34.00
75819;DHT22;64453;51.944;9.796;2023-02-28T12:01:39;7.60;33.50
75819;DHT22;64453;51.944;9.796;2023-02-28T12:04:25;7.90;34.70
75819;DHT22;64453;51.944;9.796;2023-02-28T12:07:00;8.20;34.30
75819;DHT22;64453;51.944;9.796;2023-02-28T12:09:44;8.10;33.30
75819;DHT22;64453;51.944;9.796;2023-02-28T12:12:29;8.40;34.40
75819;DHT22;64453;51.944;9.796;2023-02-28T12:18:30;8.70;32.90
75819;DHT22;64453;51.944;9.796;2023-02-28T12:21:13;8.70;32.50
75819;DHT22;64453;51.944;9.796;2023-02-28T12:23:52;8.60;32.10
75819;DHT22;64453;51.944;9.796;2023-02-28T12:26:34;8.60;33.60
75819;DHT22;64453;51.944;9.796;2023-02-28T12:29:12;8.50;33.50
75819;DHT22;64453;51.944;9.796;2023-02-28T12:31:46;8.60;33.40
75819;DHT22;64453;51.944;9.796;2023-02-28T12:34:19;8.70;33.60
75819;DHT22;64453;51.944;9.796;2023-02-28T12:36:48;8.70;34.30
75819;DHT22;64453;51.944;9.796;2023-02-28T12:39:20;8.60;33.80
75819;DHT22;64453;51.944;9.796;2023-02-28T12:41:53;8.90;33.50
75819;DHT22;64453;51.944;9.796;2023-02-28T12:44:28;8.80;33.20
75819;DHT22;64453;51.944;9.796;2023-02-28T12:47:00;8.80;32.90
75819;DHT22;64453;51.944;9.796;2023-02-28T12:49:32;8.90;33.10
75819;DHT22;64453;51.944;9.796;2023-02-28T12:52:02;8.90;33.20
75819;DHT22;64453;51.944;9.796;2023-02-28T12:54:35;8.90;33.10
75819;DHT22;64453;51.944;9.796;2023-02-28T12:57:09;9.00;32.30
75819;DHT22;64453;51.944;9.796;2023-02-28T12:59:44;8.70;32.70
75819;DHT22;64453;51.944;9.796;2023-02-28T13:02:25;8.80;32.80
75819;DHT22;64453;51.944;9.796;2023-02-28T13:05:19;8.90;32.10
75819;DHT22;64453;51.944;9.796;2023-02-28T13:08:10;8.70;33.20
75819;DHT22;64453;51.944;9.796;2023-02-28T13:10:50;8.90;33.40
75819;DHT22;64453;51.944;9.796;2023-02-28T13:13:21;8.40;32.10
75819;DHT22;64453;51.944;9.796;2023-02-28T13:16:03;8.90;34.20
75819;DHT22;64453;51.944;9.796;2023-02-28T13:18:34;9.00;33.20
75819;DHT22;64453;51.944;9.796;2023-02-28T13:21:03;9.20;33.30
75819;DHT22;64453;51.944;9.796;2023-02-28T13:23:41;9.30;33.30
75819;DHT22;64453;51.944;9.796;2023-02-28T13:27:10;9.30;33.20
75819;DHT22;64453;51.944;9.796;2023-02-28T13:29:59;9.40;33.80
75819;DHT22;64453;51.944;9.796;2023-02-28T13:32:33;9.40;32.60
75819;DHT22;64453;51.944;9.796;2023-02-28T13:38:22;9.50;32.20
75819;DHT22;64453;51.944;9.796;2023-02-28T13:40:51;9.50;32.80
75819;DHT22;64453;51.944;9.796;2023-02-28T13:43:18;9.50;33.40
75819;DHT22;64453;51.944;9.796;2023-02-28T13:46:07;9.40;32.70
75819;DHT22;64453;51.944;9.796;2023-02-28T13:48:37;9.50;33.30
75819;DHT22;64453;51.944;9.796;2023-02-28T13:51:28;9.60;33.10
75819;DHT22;64453;51.944;9.796;2023-02-28T13:54:23;9.80;32.40
75819;DHT22;64453;51.944;9.796;2023-02-28T13:57:05;9.70;31.90
75819;DHT22;64453;51.944;9.796;2023-02-28T13:59:49;9.80;32.10
75819;DHT22;64453;51.944;9.796;2023-02-28T14:02:37;10.00;31.00
75819;DHT22;64453;51.944;9.796;2023-02-28T14:05:15;10.10;30.70
75819;DHT22;64453;51.944;9.796;2023-02-28T14:07:46;10.10;30.80
75819;DHT22;64453;51.944;9.796;2023-02-28T14:10:25;10.10;31.00
75819;DHT22;64453;51.944;9.796;2023-02-28T14:13:02;10.10;30.70
75819;DHT22;64453;51.944;9.796;2023-02-28T14:15:44;10.20;30.70
75819;DHT22;64453;51.944;9.796;2023-02-28T14:18:29;10.30;30.40
75819;DHT22;64453;51.944;9.796;2023-02-28T14:21:02;10.20;30.40
75819;DHT22;64453;51.944;9.796;2023-02-28T14:23:56;10.30;30.30
75819;DHT22;64453;51.944;9.796;2023-02-28T14:26:56;10.50;30.10
75819;DHT22;64453;51.944;9.796;2023-02-28T14:32:54;10.60;30.10
75819;DHT22;64453;51.944;9.796;2023-02-28T14:35:43;10.50;30.10
75819;DHT22;64453;51.944;9.796;2023-02-28T14:38:20;10.60;30.00
75819;DHT22;64453;51.944;9.796;2023-02-28T14:40:52;10.70;29.70
75819;DHT22;64453;51.944;9.796;2023-02-28T14:43:21;10.50;29.30
75819;DHT22;64453;51.944;9.796;2023-02-28T14:45:51;10.80;29.70
75819;DHT22;64453;51.944;9.796;2023-02-28T14:48:19;10.60;29.40
75819;DHT22;64453;51.944;9.796;2023-02-28T14:50:53;10.60;30.00
75819;DHT22;64453;51.944;9.796;2023-02-28T14:53:23;10.70;29.60
75819;DHT22;64453;51.944;9.796;2023-02-28T14:55:52;10.70;29.60
75819;DHT22;64453;51.944;9.796;2023-02-28T14:58:23;10.70;29.20
75819;DHT22;64453;51.944;9.796;2023-02-28T15:00:53;10.80;29.40
75819;DHT22;64453;51.944;9.796;2023-02-28T15:03:23;11.00;29.20
75819;DHT22;64453;51.944;9.796;2023-02-28T15:05:57;10.80;29.20
75819;DHT22;64453;51.944;9.796;2023-02-28T15:08:26;11.00;28.40
75819;DHT22;64453;51.944;9.796;2023-02-28T15:10:57;10.80;29.40
75819;DHT22;64453;51.944;9.796;2023-02-28T15:13:33;11.10;29.60
75819;DHT22;64453;51.944;9.796;2023-02-28T15:16:04;10.90;29.50
75819;DHT22;64453;51.944;9.796;2023-02-28T15:18:43;11.00;29.20
75819;DHT22;64453;51.944;9.796;2023-02-28T15:21:20;11.00;29.20
75819;DHT22;64453;51.944;9.796;2023-02-28T15:23:55;11.00;28.90
75819;DHT22;64453;51.944;9.796;2023-02-28T15:26:31;11.00;29.30
75819;DHT22;64453;51.944;9.796;2023-02-28T15:29:03;11.30;29.30
75819;DHT22;64453;51.944;9.796;2023-02-28T15:31:40;11.20;29.60
75819;DHT22;64453;51.944;9.796;2023-02-28T15:34:18;11.20;29.20
75819;DHT22;64453;51.944;9.796;2023-02-28T15:36:51;10.90;28.70
75819;DHT22;64453;51.944;9.796;2023-02-28T15:39:21;11.10;29.40
75819;DHT22;64453;51.944;9.796;2023-02-28T15:42:10;12.10;28.50
75819;DHT22;64453;51.944;9.796;2023-02-28T15:44:37;13.80;26.60
75819;DHT22;64453;51.944;9.796;2023-02-28T15:47:11;13.20;26.90
75819;DHT22;64453;51.944;9.796;2023-02-28T15:49:46;12.50;27.40
75819;DHT22;64453;51.944;9.796;2023-02-28T15:52:18;12.20;27.80
75819;DHT22;64453;51.944;9.796;2023-02-28T15:54:46;12.20;28.30
75819;DHT22;64453;51.944;9.796;2023-02-28T15:57:18;12.10;27.90
75819;DHT22;64453;51.944;9.796;2023-02-28T15:59:53;12.20;27.90
75819;DHT22;64453;51.944;9.796;2023-02-28T16:02:29;11.90;27.90
75819;DHT22;64453;51.944;9.796;2023-02-28T16:05:01;12.20;27.80
75819;DHT22;64453;51.944;9.796;2023-02-28T16:07:48;12.40;27.10
75819;DHT22;64453;51.944;9.796;2023-02-28T16:10:16;12.10;27.40
75819;DHT22;64453;51.944;9.796;2023-02-28T16:12:43;12.10;27.70
75819;DHT22;64453;51.944;9.796;2023-02-28T16:15:18;11.90;27.60
75819;DHT22;64453;51.944;9.796;2023-02-28T16:17:47;12.00;27.90
75819;DHT22;64453;51.944;9.796;2023-02-28T16:20:16;11.70;27.70
75819;DHT22;64453;51.944;9.796;2023-02-28T16:22:45;11.80;27.80
75819;DHT22;64453;51.944;9.796;2023-02-28T16:25:15;11.80;28.20
75819;DHT22;64453;51.944;9.796;2023-02-28T16:27:46;11.60;28.30
75819;DHT22;64453;51.944;9.796;2023-02-28T16:30:19;11.40;28.30